Terminal Aerodrome Forecast
Issued by NWS

Home | Current Version | Previous Version | Text Only | Print | Product List | Glossary On
Versions: 1 2 3 4 5 6 7 8 9 10 11 12 13 14 15
000
FTUS43 KOAX 300520
TAFBFF
TAF
KBFF 300520Z 3006/3106 11006KT P6SM SCT080
     FM301000 05006KT 2SM BR SCT015
     FM301400 26010G20KT P6SM SCT080
     FM302000 29014G25KT P6SM VCTS BKN080CB
     FM310100 03013KT P6SM BKN080=

USA.gov is the U.S. government's official web portal to all federal, state and local government web resources and services.